Portada
METAR-TAF:

METAR-TAF

Aeroports :

Shenzhen, Xina

latitud: 22-33N, longitud: 114-06E, altitud: 18 m

Observació

L'informe es va fer fa 35 minuts, a les 21:00 UTC
Vent 10 kt del Nord-Est
Temperatura 16°C
Humitat 68%
Pressió 1021 hPa
Visibilitat 10 km o més
Núvols disperses a una alçada de 5000 ft

METAR: ZGSZ 012100Z 04005MPS 9999 SCT050 16/10 Q1021 NOSIG

Hora: 05:35 (21:35 UTC)

Pronòstic

L'informe es va fer fa 6 hores i 17 minuts, a les 15:18 UTC
Pronòstic vàlid del 01 a les 18 UTC al 02 a les 18 UTC
Vent 10 kt del Nord/Nord-Est
Visibilitat: 8000 m
Núvols disperses a una alçada de 4000 ft

TAF: ZGSZ 011518Z 0118/0218 02005MPS 8000 SCT040 TX23/0206Z TN16/0122Z

Observacions i pronòstics meteorològics de més de 4000 aeroports (METAR i TAF).

Les estacions disponibles són els punts grocs i vermells al mapa.

Posi el ratolí al punt desitjat per veure el nom de l'estació.

Feu clic per veure les observacions i els pronòstics meteorològics.

Per canviar el mapa: feu clic els botons verds amb una creu de color negre per apropar; al botó verd amb un guió per allunyar la imatge; o en les fletxes verdes per a mapes adjacents.


METAR-TAF: